الصفحة الرئيسية
METAR-TAF:

METAR-TAF

مطار :

مطار مالطا الدولي

مالطا, مالطة

دائرة عرض: 35-51N, خط طول: 014-29E, ارتفاع: 91 متر

مراقبة الطقس الحالي

تاريخ ووقت الإصدار 10 دقيقة قبل الساعة 02:15UTC
ريح 3 عقدة من الغرب
درجة الحرارة 17°درجة مئوية
الرطوبة 100%
ضغط 1016 hPa
الرؤية: 7000 متر
غيوم قليلة على ارتفاع 700 قدم

METAR: LMML 260215Z 28003KT 7000 FEW007 17/17 Q1016 BECMG 5000 BR

زمن: 04:25 (02:25 UTC)

توقعات

تاريخ ووقت الإصدار 3ساعات و 25 دقيقة قبل الساعة 23:00UTC
التوقعات صالحة من26 الساعة 00 UTC إلى 26 الساعة 24 UTC
ريح 5 عقدة من الغرب/الشمال الغربي
الرؤية: 7000 متر
غيوم قليلة على ارتفاع 1200 قدم
نظرية الاحتمالات 30%
من 26 الساعة 00 UTC إلى 26 الساعة 06 UTC
الرؤية: 5000 متر
غشاء
أصبح
من 26 الساعة 05 UTC إلى 26 الساعة 08 UTC
الرؤية 10 كم أو أكثر

TAF: LMML 252300Z 2600/2624 30005KT 7000 FEW012 PROB30 2600/2606 5000 BR BECMG 2605/2608 9999

أرصاد الطقس والتوقعات من أكثر من 4000 مطار (تقارير الطقس للمطار METAR والتنبؤ بالطقس بالمطارTAF).

المحطات المتاحة هي النقط الصفراء والحمراء على الخريطة.

حرك المؤشر فوق النقطة لمعرفة اسم المحطة.

ثم انقر لمعرفة أرصاد وتوقعات الطقس.

لتغيير الخارطة: اضغط على الأزرار الخضراء مع رمز الصليب الأسود للتكبير. على الزر الأخضر مع شرطة للتصغير، أو على الأسهم الخضراء للخرائط المجاورة.


METAR-TAF: